Time;durP1;ratioP1;P1;durP2;ratioP2;P2;SDS_P1;SDS_P2;PMS_P1;PMS_P2;Temp;Humidity;BMP_temperature;BMP_pressure;BME280_temperature;BME280_humidity;BME280_pressure;Samples;Min_cycle;Max_cycle;Signal;HPM_P1;HPM_P2
2023/11/01 00:00:34;;;;;;;10.10;4.83;;;12.40;92.20;;;;;;778353;183;26479;-88
2023/11/01 00:03:00;;;;;;;6.80;4.63;;;12.40;92.30;;;;;;779397;184;26502;-89
2023/11/01 00:05:27;;;;;;;11.13;4.87;;;12.40;92.20;;;;;;782204;183;27109;-89
2023/11/01 00:07:53;;;;;;;11.37;4.87;;;12.40;92.30;;;;;;772255;184;26527;-88
2023/11/01 00:10:20;;;;;;;7.67;4.47;;;12.50;92.30;;;;;;781138;184;27056;-88
2023/11/01 00:12:47;;;;;;;10.13;4.80;;;12.50;92.80;;;;;;773651;184;26506;-89
2023/11/01 00:15:13;;;;;;;7.47;4.37;;;12.40;92.60;;;;;;769770;184;27052;-89
2023/11/01 00:17:40;;;;;;;15.73;8.37;;;12.40;92.90;;;;;;778197;184;26491;-88
2023/11/01 00:20:07;;;;;;;12.33;5.63;;;12.40;92.70;;;;;;780831;184;27075;-88
2023/11/01 00:22:34;;;;;;;12.93;6.57;;;12.40;93.10;;;;;;778405;183;26470;-88
2023/11/01 00:25:00;;;;;;;7.97;4.17;;;12.40;93.20;;;;;;780480;184;26478;-89
2023/11/01 00:27:30;;;;;;;7.67;4.30;;;12.30;92.90;;;;;;773781;184;26508;-87
2023/11/01 00:29:54;;;;;;;7.03;4.33;;;12.30;93.10;;;;;;764901;187;26509;-89
2023/11/01 00:32:20;;;;;;;10.47;4.40;;;12.30;93.20;;;;;;762504;184;26525;-88
2023/11/01 00:34:48;;;;;;;7.53;3.77;;;12.30;93.20;;;;;;766429;184;26545;-88
2023/11/01 00:37:13;;;;;;;12.57;4.10;;;12.30;93.30;;;;;;769362;184;26544;-88
2023/11/01 00:39:40;;;;;;;6.27;4.10;;;12.20;93.30;;;;;;763579;188;26564;-88
2023/11/01 00:42:07;;;;;;;8.90;3.87;;;12.30;93.30;;;;;;774611;184;26477;-89
2023/11/01 00:44:33;;;;;;;8.30;4.23;;;12.20;93.50;;;;;;780173;182;26488;-89
2023/11/01 00:47:00;;;;;;;8.37;5.00;;;12.20;93.30;;;;;;776731;184;27079;-88
2023/11/01 00:49:26;;;;;;;13.07;5.30;;;12.20;93.90;;;;;;775946;184;26483;-88
2023/11/01 00:51:53;;;;;;;13.53;5.27;;;12.20;93.70;;;;;;773562;184;27263;-89
2023/11/01 00:54:20;;;;;;;12.63;6.57;;;12.20;94.30;;;;;;774946;185;26487;-90
2023/11/01 00:56:46;;;;;;;12.70;5.70;;;12.20;94.20;;;;;;771118;185;27041;-90
2023/11/01 00:59:13;;;;;;;12.33;6.23;;;12.10;93.90;;;;;;770580;187;26498;-89
2023/11/01 01:01:39;;;;;;;12.97;5.13;;;12.10;94.20;;;;;;769912;186;26488;-90
2023/11/01 01:04:06;;;;;;;12.43;5.67;;;12.10;94.20;;;;;;772764;185;26506;-90
2023/11/01 01:06:33;;;;;;;10.07;5.40;;;12.10;94.40;;;;;;778337;183;26474;-88
2023/11/01 01:08:59;;;;;;;11.37;5.40;;;12.10;94.10;;;;;;774749;183;26495;-89
2023/11/01 01:11:26;;;;;;;9.63;5.50;;;12.10;94.20;;;;;;775373;184;26462;-91
2023/11/01 01:13:52;;;;;;;14.40;5.60;;;12.00;94.50;;;;;;776057;184;26461;-90
2023/11/01 01:16:20;;;;;;;12.53;5.43;;;11.90;94.40;;;;;;776210;183;26474;-89
2023/11/01 01:18:46;;;;;;;12.93;4.87;;;11.90;94.50;;;;;;763990;185;26495;-90
2023/11/01 01:21:13;;;;;;;11.93;5.33;;;12.00;94.50;;;;;;772050;183;27193;-90
2023/11/01 01:23:40;;;;;;;8.80;5.50;;;12.00;94.60;;;;;;781725;183;26530;-89
2023/11/01 01:26:06;;;;;;;13.40;5.40;;;11.90;94.70;;;;;;778566;184;27079;-89
2023/11/01 01:28:33;;;;;;;9.30;5.20;;;11.90;94.80;;;;;;781583;181;26484;-89
2023/11/01 01:30:59;;;;;;;11.30;5.20;;;12.00;94.90;;;;;;764403;187;26812;-90
2023/11/01 01:33:26;;;;;;;13.13;5.47;;;11.90;95.00;;;;;;764895;185;26511;-89
2023/11/01 01:35:53;;;;;;;9.93;5.57;;;11.90;95.20;;;;;;774273;185;26467;-90
2023/11/01 01:38:19;;;;;;;13.20;5.00;;;11.90;95.20;;;;;;765503;186;26530;-91
2023/11/01 01:40:46;;;;;;;13.37;5.40;;;12.10;95.50;;;;;;769458;184;26497;-90
2023/11/01 01:43:18;;;;;;;10.00;4.60;;;12.00;95.50;;;;;;770753;186;26529;-90
2023/11/01 01:45:45;;;;;;;12.50;4.10;;;12.00;95.60;;;;;;776930;183;26515;-90
2023/11/01 01:48:11;;;;;;;12.90;4.50;;;12.00;95.60;;;;;;764922;186;26500;-92
2023/11/01 01:50:38;;;;;;;10.23;4.30;;;12.10;95.50;;;;;;764578;186;26529;-90
2023/11/01 01:53:04;;;;;;;9.63;4.53;;;12.10;95.60;;;;;;777622;181;26487;-89
2023/11/01 01:55:31;;;;;;;11.97;4.93;;;12.00;95.60;;;;;;780531;181;26497;-90
2023/11/01 01:57:57;;;;;;;10.97;4.50;;;12.00;95.60;;;;;;778905;183;28059;-91
2023/11/01 02:00:25;;;;;;;10.90;4.77;;;12.00;95.70;;;;;;779839;183;26512;-90
2023/11/01 02:02:52;;;;;;;10.03;4.27;;;11.90;95.60;;;;;;784279;183;26854;-90
2023/11/01 02:05:18;;;;;;;12.37;4.57;;;11.90;95.80;;;;;;783617;183;27026;-90
2023/11/01 02:07:45;;;;;;;11.10;4.73;;;11.90;96.00;;;;;;783138;183;26506;-89
2023/11/01 02:10:14;;;;;;;15.07;4.93;;;11.90;96.10;;;;;;783473;183;27053;-89
2023/11/01 02:12:38;;;;;;;8.40;4.37;;;11.90;96.00;;;;;;783004;182;26473;-89
2023/11/01 02:15:05;;;;;;;9.60;4.70;;;12.00;96.00;;;;;;775947;184;26478;-90
2023/11/01 02:17:31;;;;;;;8.10;4.00;;;11.90;95.80;;;;;;769133;183;26506;-89
2023/11/01 02:19:58;;;;;;;10.37;4.80;;;12.00;96.00;;;;;;768166;186;27035;-89
2023/11/01 02:22:24;;;;;;;10.27;4.53;;;11.90;96.00;;;;;;768429;186;26476;-91
2023/11/01 02:24:51;;;;;;;10.10;4.67;;;12.00;96.00;;;;;;771945;186;26496;-90
2023/11/01 02:27:18;;;;;;;12.67;5.20;;;12.00;96.00;;;;;;771248;184;26499;-90
2023/11/01 02:29:44;;;;;;;11.80;4.60;;;12.00;96.10;;;;;;772155;186;26495;-90
2023/11/01 02:32:11;;;;;;;9.40;5.10;;;12.00;96.00;;;;;;769936;186;26472;-90
2023/11/01 02:34:37;;;;;;;8.13;4.43;;;12.00;96.00;;;;;;766549;188;26522;-89
2023/11/01 02:37:04;;;;;;;10.07;4.10;;;12.10;96.10;;;;;;766292;187;26573;-90
2023/11/01 02:39:31;;;;;;;10.83;4.47;;;12.10;95.70;;;;;;769328;184;27016;-90
2023/11/01 02:41:57;;;;;;;8.43;4.10;;;12.10;95.70;;;;;;775997;184;26484;-89
2023/11/01 02:47:01;;;;;;;8.00;4.20;;;12.10;95.50;;;;;;778909;184;26470;-89
2023/11/01 02:49:27;;;;;;;9.20;3.63;;;12.10;95.60;;;;;;778186;183;26522;-89
2023/11/01 02:51:54;;;;;;;8.30;4.17;;;12.10;95.50;;;;;;775074;184;26495;-89
2023/11/01 02:54:21;;;;;;;8.53;4.00;;;12.10;95.60;;;;;;777233;184;26489;-90
2023/11/01 02:56:47;;;;;;;6.50;3.77;;;12.10;95.60;;;;;;777023;185;26491;-89
2023/11/01 02:59:38;;;;;;;6.43;3.70;;;12.20;95.80;;;;;;777066;184;26486;-90
2023/11/01 03:02:04;;;;;;;8.20;3.20;;;12.20;95.70;;;;;;779338;183;26465;-91
2023/11/01 03:04:31;;;;;;;9.90;4.17;;;12.20;95.60;;;;;;773635;184;26510;-91
2023/11/01 03:07:05;;;;;;;10.20;3.93;;;12.20;95.80;;;;;;781637;181;26485;-91
2023/11/01 03:09:31;;;;;;;7.17;3.60;;;12.10;95.90;;;;;;760369;186;26513;-89
2023/11/01 03:11:57;;;;;;;6.63;3.90;;;12.10;95.90;;;;;;776991;183;27041;-89
2023/11/01 03:14:24;;;;;;;8.10;4.60;;;12.10;96.30;;;;;;782542;183;26542;-90
2023/11/01 03:16:51;;;;;;;9.67;4.00;;;12.10;96.50;;;;;;780267;183;27077;-90
2023/11/01 03:19:17;;;;;;;6.30;3.30;;;12.00;96.60;;;;;;771909;184;26518;-89
2023/11/01 03:21:44;;;;;;;14.77;4.77;;;11.90;96.50;;;;;;771646;182;26469;-90
2023/11/01 03:24:17;;;;;;;6.97;3.73;;;11.90;97.20;;;;;;768089;187;26487;-91
2023/11/01 03:26:43;;;;;;;8.73;4.30;;;11.90;97.20;;;;;;782512;183;26480;-89
2023/11/01 03:29:10;;;;;;;10.63;4.37;;;11.90;97.20;;;;;;782387;183;27022;-90
2023/11/01 03:31:37;;;;;;;9.50;5.53;;;11.90;97.40;;;;;;776600;183;26532;-91
2023/11/01 03:34:22;;;;;;;10.60;4.80;;;11.90;97.50;;;;;;777269;184;26498;-91
2023/11/01 03:36:49;;;;;;;10.57;5.37;;;11.90;97.60;;;;;;781511;183;26522;-90
2023/11/01 03:39:15;;;;;;;8.00;4.57;;;11.90;97.70;;;;;;779759;184;26525;-91
2023/11/01 03:41:43;;;;;;;10.57;4.77;;;11.90;97.70;;;;;;781727;183;26503;-89
2023/11/01 03:44:09;;;;;;;11.37;5.10;;;11.90;97.70;;;;;;780928;183;26501;-90
2023/11/01 03:46:36;;;;;;;9.03;4.80;;;11.80;97.80;;;;;;782188;184;27263;-91
2023/11/01 03:49:06;;;;;;;9.97;3.93;;;11.90;98.00;;;;;;777484;184;26478;-90
2023/11/01 03:51:33;;;;;;;5.20;4.00;;;11.90;97.80;;;;;;776767;183;26487;-90
2023/11/01 03:53:59;;;;;;;9.17;5.23;;;11.80;97.80;;;;;;771853;184;26492;-91
2023/11/01 03:56:26;;;;;;;9.53;5.77;;;11.80;98.20;;;;;;770090;184;26512;-91
2023/11/01 03:58:52;;;;;;;8.17;4.80;;;11.90;98.00;;;;;;770863;184;26507;-90
2023/11/01 04:01:19;;;;;;;10.97;5.37;;;11.80;98.00;;;;;;773242;183;26494;-90
2023/11/01 04:03:50;;;;;;;12.03;6.53;;;11.80;98.00;;;;;;758779;181;26613;-85
2023/11/01 04:06:22;;;;;;;9.67;4.13;;;11.80;98.10;;;;;;739025;191;26666;-83
2023/11/01 04:08:53;;;;;;;9.60;5.80;;;11.80;98.10;;;;;;743844;190;28215;-83
2023/11/01 04:11:31;;;;;;;11.70;5.97;;;11.80;98.20;;;;;;752893;189;27095;-85
2023/11/01 04:14:05;;;;;;;10.20;6.47;;;11.90;98.30;;;;;;747289;191;26607;-85
2023/11/01 04:16:41;;;;;;;10.30;5.87;;;11.80;98.20;;;;;;749173;190;27073;-86
2023/11/01 04:19:18;;;;;;;12.97;5.97;;;11.90;98.30;;;;;;752796;188;26544;-85
2023/11/01 04:21:57;;;;;;;;;;;;;;;;;;;;;
2023/11/01 04:24:27;;;;;;;8.07;5.77;;;11.90;98.40;;;;;;746991;187;26524;-86
2023/11/01 04:26:55;;;;;;;13.47;5.23;;;11.90;98.40;;;;;;755749;189;26512;-86
2023/11/01 04:29:37;;;;;;;7.63;5.23;;;11.90;98.50;;;;;;757994;187;26526;-83
2023/11/01 04:32:09;;;;;;;7.93;4.33;;;12.00;98.60;;;;;;755998;187;26530;-86
2023/11/01 04:34:41;;;;;;;8.57;4.07;;;11.90;98.40;;;;;;754596;187;26697;-87
2023/11/01 04:37:17;;;;;;;7.53;3.90;;;11.90;98.40;;;;;;754645;187;27232;-88
2023/11/01 04:39:46;;;;;;;6.60;4.23;;;11.90;98.40;;;;;;754040;187;27055;-84
2023/11/01 04:42:16;;;;;;;9.33;3.90;;;11.90;98.40;;;;;;753748;187;26536;-88
2023/11/01 04:44:47;;;;;;;9.73;4.20;;;11.90;98.50;;;;;;754127;185;26539;-88
2023/11/01 04:47:17;;;;;;;7.80;3.80;;;12.00;98.60;;;;;;754435;187;26517;-88
2023/11/01 04:49:49;;;;;;;7.23;3.73;;;12.00;98.60;;;;;;754061;187;28228;-91
2023/11/01 04:52:25;;;;;;;9.10;3.20;;;12.00;98.50;;;;;;756791;180;26627;-90
2023/11/01 04:55:00;;;;;;;7.23;3.20;;;11.90;98.30;;;;;;752125;187;26564;-86
2023/11/01 04:57:33;;;;;;;4.80;2.70;;;12.00;98.30;;;;;;759256;187;27086;-85
2023/11/01 05:00:15;;;;;;;5.13;3.20;;;12.00;98.20;;;;;;765282;188;26501;-84
2023/11/01 05:02:47;;;;;;;7.37;3.10;;;12.00;98.30;;;;;;753695;187;26507;-84
2023/11/01 05:05:18;;;;;;;5.00;2.80;;;12.00;98.30;;;;;;755457;187;26515;-89
2023/11/01 05:07:52;;;;;;;6.30;3.37;;;12.00;98.20;;;;;;752277;191;26548;-84
2023/11/01 05:10:20;;;;;;;6.87;2.90;;;12.00;98.30;;;;;;752792;190;26570;-87
2023/11/01 05:12:53;;;;;;;6.23;2.93;;;12.00;98.10;;;;;;753124;187;26507;-87
2023/11/01 05:15:26;;;;;;;8.53;3.07;;;12.00;98.10;;;;;;753195;187;26597;-84
2023/11/01 05:18:06;;;;;;;8.23;3.63;;;12.00;98.20;;;;;;761291;189;26494;-84
2023/11/01 05:20:41;;;;;;;3.97;3.00;;;12.10;98.30;;;;;;761143;189;26545;-84
2023/11/01 05:23:13;;;;;;;4.37;3.20;;;12.00;98.20;;;;;;760796;187;27163;-86
2023/11/01 05:25:42;;;;;;;3.63;2.53;;;12.10;98.30;;;;;;751999;187;27065;-84
2023/11/01 05:28:12;;;;;;;4.80;3.57;;;12.10;98.20;;;;;;757542;187;26509;-83
2023/11/01 05:30:53;;;;;;;5.63;3.00;;;12.10;98.20;;;;;;749711;186;26502;-86
2023/11/01 05:33:24;;;;;;;3.70;2.80;;;12.00;98.00;;;;;;751914;187;26536;-84
2023/11/01 05:35:53;;;;;;;8.27;4.10;;;12.00;98.00;;;;;;754246;189;26526;-85
2023/11/01 05:38:26;;;;;;;5.93;3.50;;;12.00;98.00;;;;;;752143;187;27041;-85
2023/11/01 05:40:55;;;;;;;6.20;3.70;;;12.00;98.10;;;;;;762576;189;28130;-88
2023/11/01 05:43:27;;;;;;;4.80;3.57;;;12.00;98.10;;;;;;763748;178;26947;-84
2023/11/01 05:45:55;;;;;;;5.27;3.60;;;11.90;98.00;;;;;;763148;183;26480;-86
2023/11/01 05:48:26;;;;;;;3.63;2.93;;;11.90;98.10;;;;;;744751;192;26529;-88
2023/11/01 05:51:28;;;;;;;6.07;2.70;;;11.90;98.00;;;;;;749514;191;27045;-86
2023/11/01 05:53:46;;;;;;;6.10;3.73;;;11.90;98.00;;;;;;758390;178;26543;-86
2023/11/01 05:56:19;;;;;;;5.57;3.70;;;12.00;98.10;;;;;;778061;183;26559;-87
2023/11/01 05:58:55;;;;;;;6.43;3.60;;;12.00;98.10;;;;;;776789;183;27040;-87
2023/11/01 06:01:25;;;;;;;8.30;4.70;;;12.00;98.10;;;;;;774275;184;26475;-86
2023/11/01 06:04:00;;;;;;;5.73;3.47;;;12.00;98.00;;;;;;769915;185;27007;-86
2023/11/01 06:06:33;;;;;;;6.77;3.53;;;11.90;97.90;;;;;;765525;183;27847;-89
2023/11/01 06:09:04;;;;;;;6.30;3.70;;;12.00;98.00;;;;;;776385;184;26492;-87
2023/11/01 06:11:36;;;;;;;5.73;3.27;;;12.00;98.20;;;;;;769321;185;26500;-87
2023/11/01 06:14:14;;;;;;;7.80;2.90;;;11.90;98.10;;;;;;770930;185;26582;-87
2023/11/01 06:16:46;;;;;;;5.13;3.20;;;11.90;98.00;;;;;;769933;186;26484;-86
2023/11/01 06:19:16;;;;;;;6.67;3.50;;;12.00;98.10;;;;;;776758;183;27049;-87
2023/11/01 06:29:43;;;;;;;6.00;3.80;;;11.90;98.00;;;;;;749928;190;26771;-86
2023/11/01 06:32:13;;;;;;;8.23;3.33;;;11.90;98.00;;;;;;751090;188;27087;-86
2023/11/01 06:34:51;;;;;;;4.63;3.37;;;11.90;98.00;;;;;;749106;191;26548;-86
2023/11/01 06:37:20;;;;;;;6.73;3.77;;;11.90;98.00;;;;;;756156;187;27053;-87
2023/11/01 06:40:02;;;;;;;4.43;2.80;;;12.00;98.10;;;;;;762045;188;27071;-86
2023/11/01 06:42:36;;;;;;;7.00;2.83;;;12.00;98.10;;;;;;748074;190;27088;-89
2023/11/01 06:45:13;;;;;;;6.50;3.33;;;12.00;97.80;;;;;;766640;182;26512;-89
2023/11/01 06:47:41;;;;;;;4.60;2.60;;;12.00;97.90;;;;;;770910;184;26543;-87
2023/11/01 06:50:16;;;;;;;5.83;3.10;;;12.00;97.90;;;;;;774245;184;27028;-87
2023/11/01 06:52:46;;;;;;;9.70;3.37;;;12.10;98.00;;;;;;770772;185;26484;-90
2023/11/01 06:55:26;;;;;;;4.03;2.40;;;12.10;97.90;;;;;;772270;182;26508;-90
2023/11/01 06:58:06;;;;;;;10.80;2.93;;;12.20;97.70;;;;;;769771;185;26549;-87
2023/11/01 07:00:34;;;;;;;5.67;2.93;;;12.20;97.60;;;;;;754003;187;26509;-88
2023/11/01 07:03:06;;;;;;;7.23;2.77;;;12.20;97.70;;;;;;778547;183;26475;-88
2023/11/01 07:05:47;;;;;;;7.50;3.10;;;12.30;97.70;;;;;;778627;184;27012;-87
2023/11/01 07:08:25;;;;;;;;;;;;;;;;;;;;;
2023/11/01 07:10:59;;;;;;;9.67;3.10;;;12.30;97.70;;;;;;778467;184;26488;-87
2023/11/01 07:16:28;;;;;;;;;;;;;;;;;;;;;
2023/11/01 07:21:40;;;;;;;4.57;2.90;;;12.40;97.40;;;;;;745749;190;27146;-86
2023/11/01 07:24:12;;;;;;;6.73;2.60;;;12.50;97.50;;;;;;735405;193;26592;-87
2023/11/01 07:26:42;;;;;;;8.97;3.10;;;12.50;97.40;;;;;;737550;190;26544;-86
2023/11/01 07:29:27;;;;;;;5.67;2.50;;;12.50;97.30;;;;;;725655;198;26529;-86
2023/11/01 07:32:03;;;;;;;6.77;2.67;;;12.50;97.10;;;;;;726277;197;26529;-86
2023/11/01 07:34:39;;;;;;;7.53;2.87;;;12.60;97.20;;;;;;739184;191;27152;-85
2023/11/01 07:37:08;;;;;;;6.93;3.10;;;12.60;97.20;;;;;;738098;194;26542;-86
2023/11/01 07:39:34;;;;;;;9.23;2.83;;;12.60;97.30;;;;;;738081;191;26532;-88
2023/11/01 07:42:11;;;;;;;11.37;3.77;;;12.60;97.00;;;;;;738310;193;26584;-86
2023/11/01 07:44:41;;;;;;;6.47;2.50;;;12.70;96.90;;;;;;724975;198;26546;-85
2023/11/01 07:47:20;;;;;;;6.60;2.40;;;12.70;96.60;;;;;;742243;192;26547;-86
2023/11/01 07:49:57;;;;;;;;;;;;;;;;;;;;;
2023/11/01 07:52:37;;;;;;;7.93;2.47;;;12.70;96.40;;;;;;756769;187;26517;-86
2023/11/01 07:55:21;;;;;;;8.63;2.70;;;12.80;96.40;;;;;;756683;186;26580;-86
2023/11/01 07:57:58;;;;;;;7.37;2.47;;;12.80;96.30;;;;;;765579;187;26499;-87
2023/11/01 08:00:41;;;;;;;10.30;2.47;;;12.90;96.30;;;;;;765242;187;26593;-86
2023/11/01 08:03:11;;;;;;;10.23;3.20;;;13.00;96.10;;;;;;758933;188;26494;-87
2023/11/01 08:05:38;;;;;;;7.30;2.40;;;13.00;95.90;;;;;;752926;191;26485;-86
2023/11/01 08:08:05;;;;;;;9.93;3.20;;;13.10;96.00;;;;;;752609;188;26489;-86
2023/11/01 08:10:36;;;;;;;10.07;2.90;;;13.10;95.70;;;;;;752793;188;26530;-87
2023/11/01 08:13:05;;;;;;;14.33;3.40;;;13.10;95.30;;;;;;752114;188;27075;-87
2023/11/01 08:15:33;;;;;;;8.00;2.63;;;13.00;95.30;;;;;;760067;187;26573;-87
2023/11/01 08:18:13;;;;;;;9.97;2.83;;;13.00;95.60;;;;;;763208;185;26580;-86
2023/11/01 08:20:53;;;;;;;6.87;2.10;;;13.10;95.70;;;;;;761063;187;26542;-87
2023/11/01 08:23:29;;;;;;;7.43;2.60;;;13.10;95.70;;;;;;757507;187;26530;-89
2023/11/01 08:25:56;;;;;;;6.30;2.30;;;13.10;95.40;;;;;;763349;185;26496;-85
2023/11/01 08:28:38;;;;;;;9.33;2.77;;;13.10;95.30;;;;;;764243;185;27027;-86
2023/11/01 08:33:57;;;;;;;5.47;2.57;;;13.20;95.20;;;;;;751752;188;26594;-86
2023/11/01 08:36:31;;;;;;;8.47;2.80;;;13.20;94.70;;;;;;751827;191;27136;-87
2023/11/01 08:42:12;;;;;;;6.47;2.37;;;13.40;94.70;;;;;;751869;188;26498;-86
2023/11/01 08:47:33;;;;;;;12.87;2.93;;;13.50;94.20;;;;;;750610;190;26535;-87
2023/11/01 08:53:00;;;;;;;9.07;2.60;;;13.60;94.30;;;;;;745366;190;26505;-87
2023/11/01 08:55:31;;;;;;;7.13;2.47;;;13.60;93.70;;;;;;745735;191;26555;-88
2023/11/01 08:57:58;;;;;;;10.47;2.77;;;13.60;93.90;;;;;;742687;190;26584;-86
2023/11/01 09:00:30;;;;;;;7.43;2.33;;;13.60;94.00;;;;;;744918;191;26522;-87
2023/11/01 09:03:07;;;;;;;7.63;2.40;;;13.70;94.20;;;;;;734169;195;26550;-84
2023/11/01 09:05:39;;;;;;;6.07;2.20;;;13.70;93.80;;;;;;746436;186;26624;-87
2023/11/01 09:19:33;;;;;;;8.47;2.63;;;13.90;93.50;;;;;;738457;176;26562;-84
2023/11/01 09:28:24;;;;;;;;;;;;;;;;;;;;;
2023/11/01 09:30:40;;;;;;;7.37;2.13;;;13.90;92.10;;;;;;769326;181;26466;-84
2023/11/01 09:47:07;;;;;;;5.83;2.23;;;14.00;91.60;;;;;;725281;184;26624;-86
2023/11/01 09:49:54;;;;;;;7.27;2.53;;;14.10;91.50;;;;;;767098;184;26542;-83
2023/11/01 09:52:32;;;;;;;7.23;2.53;;;14.10;92.00;;;;;;769350;183;26508;-86
2023/11/01 09:55:02;;;;;;;6.47;2.30;;;14.20;91.50;;;;;;774798;183;26550;-85
2023/11/01 09:57:45;;;;;;;4.80;2.57;;;14.20;91.30;;;;;;775150;183;26476;-83
2023/11/01 10:00:24;;;;;;;7.13;2.90;;;14.20;91.50;;;;;;768488;185;27018;-87
2023/11/01 10:03:00;;;;;;;6.47;2.50;;;14.30;90.70;;;;;;770348;185;27029;-82
2023/11/01 10:05:27;;;;;;;52.23;19.40;;;14.40;90.80;;;;;;770411;186;26545;-85
2023/11/01 10:07:53;;;;;;;9.03;4.13;;;14.60;90.70;;;;;;770567;185;26475;-88
2023/11/01 10:10:24;;;;;;;11.87;5.10;;;14.60;88.70;;;;;;776933;184;27035;-84
2023/11/01 10:12:54;;;;;;;8.17;3.33;;;14.60;90.20;;;;;;783202;183;26467;-83
2023/11/01 10:15:24;;;;;;;5.43;2.33;;;14.60;90.10;;;;;;780140;182;26507;-86
2023/11/01 10:17:54;;;;;;;5.70;2.30;;;14.60;89.20;;;;;;777279;181;27078;-87
2023/11/01 10:20:35;;;;;;;7.00;2.70;;;14.60;90.20;;;;;;776487;181;26503;-86
2023/11/01 10:23:02;;;;;;;5.83;2.27;;;14.70;90.40;;;;;;776189;184;26479;-84
2023/11/01 10:25:29;;;;;;;8.43;3.03;;;14.70;90.30;;;;;;775907;185;27032;-86
2023/11/01 10:27:55;;;;;;;8.23;2.40;;;14.70;88.60;;;;;;775887;181;28166;-85
2023/11/01 10:30:25;;;;;;;8.13;2.97;;;14.70;89.70;;;;;;777715;181;26526;-86
2023/11/01 10:32:58;;;;;;;13.67;3.43;;;14.70;88.90;;;;;;781053;182;26453;-85
2023/11/01 10:38:31;;;;;;;11.40;3.30;;;14.70;87.60;;;;;;782602;183;26445;-89
2023/11/01 10:44:03;;;;;;;11.73;2.93;;;14.80;88.70;;;;;;777853;180;26493;-89
2023/11/01 10:46:32;;;;;;;6.67;2.53;;;14.80;87.70;;;;;;775023;185;26469;-86
2023/11/01 10:48:59;;;;;;;8.40;2.17;;;15.00;88.00;;;;;;775400;185;26481;-87
2023/11/01 10:51:26;;;;;;;7.70;2.50;;;15.10;86.80;;;;;;782547;183;26468;-89
2023/11/01 10:53:53;;;;;;;7.67;2.30;;;15.00;86.90;;;;;;769710;183;26499;-89
2023/11/01 10:56:26;;;;;;;6.60;1.93;;;15.00;86.40;;;;;;769372;183;26510;-87
2023/11/01 10:58:54;;;;;;;8.67;2.27;;;15.10;84.60;;;;;;775959;185;27031;-89
2023/11/01 11:01:30;;;;;;;9.93;2.60;;;15.20;86.60;;;;;;776341;184;27010;-91
2023/11/01 11:04:24;;;;;;;10.47;2.87;;;15.20;85.70;;;;;;775645;182;26831;-91
2023/11/01 11:06:55;;;;;;;10.73;4.67;;;15.20;87.30;;;;;;775976;184;26487;-91
2023/11/01 11:09:24;;;;;;;7.57;3.60;;;15.30;85.60;;;;;;776465;185;26524;-90
2023/11/01 11:12:04;;;;;;;8.47;3.37;;;15.30;86.20;;;;;;778725;183;26489;-88
2023/11/01 11:14:41;;;;;;;6.30;2.33;;;15.30;84.50;;;;;;771145;184;26498;-89
2023/11/01 11:17:40;;;;;;;;;;;;;;;;;;;;;
2023/11/01 11:20:12;;;;;;;6.73;2.40;;;15.60;83.10;;;;;;776867;183;26966;-91
2023/11/01 11:22:56;;;;;;;9.37;2.73;;;15.50;83.90;;;;;;773881;183;26485;-89
2023/11/01 11:25:34;;;;;;;7.00;2.60;;;15.50;83.70;;;;;;773797;184;27158;-88
2023/11/01 11:28:04;;;;;;;9.67;2.50;;;15.30;83.60;;;;;;775759;182;26498;-88
2023/11/01 11:30:46;;;;;;;6.20;2.70;;;15.30;84.10;;;;;;776705;183;27087;-90
2023/11/01 11:39:00;;;;;;;6.60;2.60;;;15.60;82.70;;;;;;775840;182;26474;-90
2023/11/01 11:41:29;;;;;;;8.40;2.57;;;15.60;84.10;;;;;;767566;184;27071;-91
2023/11/01 11:44:08;;;;;;;9.80;2.60;;;15.50;81.90;;;;;;780473;178;26995;-90
2023/11/01 11:52:29;;;;;;;8.77;3.47;;;15.20;83.50;;;;;;795653;179;26555;-90
2023/11/01 11:55:06;;;;;;;7.73;2.60;;;15.20;82.00;;;;;;794433;180;26447;-91
2023/11/01 11:57:45;;;;;;;;;;;;;;;;;;;;;
2023/11/01 12:00:18;;;;;;;8.23;2.73;;;15.20;83.10;;;;;;794964;179;26427;-90
2023/11/01 12:02:48;;;;;;;13.80;3.07;;;15.10;82.10;;;;;;792248;177;26485;-90
2023/11/01 12:05:23;;;;;;;6.10;2.97;;;15.20;83.20;;;;;;790779;177;26456;-92
2023/11/01 12:07:53;;;;;;;8.87;2.90;;;15.20;82.50;;;;;;789396;181;26469;-91
2023/11/01 12:10:28;;;;;;;9.37;2.90;;;15.10;81.50;;;;;;790833;180;26436;-89
2023/11/01 12:12:58;;;;;;;6.57;2.73;;;15.10;81.70;;;;;;800335;176;26545;-91
2023/11/01 12:15:31;;;;;;;10.87;3.87;;;15.20;82.50;;;;;;792989;175;26425;-90
2023/11/01 12:18:10;;;;;;;6.20;2.33;;;15.20;80.10;;;;;;791016;177;26418;-90
2023/11/01 12:20:47;;;;;;;12.40;4.37;;;15.30;81.00;;;;;;791003;176;26423;-91
2023/11/01 12:23:19;;;;;;;9.20;2.70;;;15.40;81.40;;;;;;789817;182;26464;-92
2023/11/01 12:25:47;;;;;;;8.83;2.93;;;15.30;79.50;;;;;;789903;180;26985;-87
2023/11/01 12:28:21;;;;;;;8.60;2.80;;;15.30;80.60;;;;;;791602;179;26418;-91
2023/11/01 12:31:01;;;;;;;8.63;4.20;;;15.30;79.80;;;;;;791892;181;27017;-90
2023/11/01 12:33:53;;;;;;;8.53;2.83;;;15.30;80.90;;;;;;792960;177;26458;-89
2023/11/01 12:36:35;;;;;;;9.77;3.60;;;15.20;79.20;;;;;;765065;183;26478;-90
2023/11/01 12:39:22;;;;;;;8.77;2.73;;;15.20;81.20;;;;;;774004;184;26490;-91
2023/11/01 12:42:08;;;;;;;9.50;2.60;;;15.10;81.60;;;;;;775180;183;27184;-90
2023/11/01 12:45:10;;;;;;;6.00;2.43;;;15.00;80.50;;;;;;770028;183;27130;-89
2023/11/01 12:47:40;;;;;;;8.47;2.30;;;15.00;80.30;;;;;;746423;187;27102;-90
2023/11/01 17:45:43;;;;;;;73.73;42.17;;;14.00;77.10;;;;;;750588;171;26556;-89
2023/11/01 17:54:09;;;;;;;4.73;2.00;;;13.90;78.10;;;;;;775452;181;26517;-88
2023/11/01 17:59:59;;;;;;;8.23;4.17;;;13.70;78.00;;;;;;765102;180;26537;-88
2023/11/01 18:05:47;;;;;;;102.77;50.77;;;13.60;78.00;;;;;;729620;177;26822;-87
2023/11/01 18:08:17;;;;;;;46.00;24.23;;;13.50;77.80;;;;;;754250;187;26517;-89
2023/11/01 18:10:50;;;;;;;35.37;17.87;;;13.40;78.30;;;;;;756606;187;26534;-90
2023/11/01 18:13:27;;;;;;;21.90;11.00;;;13.40;77.50;;;;;;757035;187;27149;-86
2023/11/01 18:18:55;;;;;;;22.43;12.17;;;13.40;77.40;;;;;;756750;187;27105;-87
2023/11/01 18:21:46;;;;;;;11.27;6.13;;;13.30;77.40;;;;;;779397;180;26461;-89
2023/11/01 18:24:40;;;;;;;35.07;16.83;;;13.30;77.80;;;;;;765655;184;26481;-88
2023/11/01 18:27:10;;;;;;;35.73;18.93;;;13.30;77.40;;;;;;755296;187;27024;-89
2023/11/01 18:30:05;;;;;;;;;;;;;;;;;;;;;
2023/11/01 18:32:44;;;;;;;74.73;37.43;;;13.30;78.10;;;;;;758539;186;27096;-88
2023/11/01 18:35:34;;;;;;;5.60;2.80;;;13.10;79.80;;;;;;760043;187;26593;-87
2023/11/01 18:38:03;;;;;;;3.97;2.80;;;13.10;79.60;;;;;;756441;187;26520;-91
2023/11/01 18:46:07;;;;;;;150.73;67.30;;;12.90;79.00;;;;;;734466;173;26675;-88
2023/11/01 18:54:12;;;;;;;9.63;5.87;;;12.90;78.70;;;;;;773366;175;26479;-87
2023/11/01 18:59:56;;;;;;;9.37;4.47;;;12.90;79.10;;;;;;783938;180;27256;-90
2023/11/01 19:02:46;;;;;;;5.83;3.10;;;12.80;80.00;;;;;;784941;180;26455;-86
2023/11/01 19:08:48;;;;;;;;;;;;;;;;;;;;;
2023/11/01 19:11:13;;;;;;;5.23;2.60;;;12.80;81.50;;;;;;792817;177;26477;-88
2023/11/01 19:22:35;;;;;;;6.83;2.37;;;12.70;81.10;;;;;;741484;187;26590;-89
2023/11/01 19:27:52;;;;;;;4.40;2.10;;;12.60;83.10;;;;;;718453;178;26553;-90
2023/11/01 19:30:19;;;;;;;5.50;2.50;;;12.50;82.90;;;;;;768348;184;26579;-89
2023/11/01 19:32:46;;;;;;;2.87;2.20;;;12.40;83.50;;;;;;761379;186;26577;-87
2023/11/01 19:35:12;;;;;;;3.07;2.10;;;12.40;83.90;;;;;;744875;191;26879;-91
2023/11/01 19:40:27;;;;;;;5.03;2.70;;;12.30;84.10;;;;;;758579;187;27485;-88
2023/11/01 19:42:53;;;;;;;33.83;15.83;;;12.20;84.30;;;;;;757882;186;26594;-90
2023/11/01 19:45:19;;;;;;;13.70;7.13;;;12.20;84.30;;;;;;748472;189;26585;-88
2023/11/01 19:47:46;;;;;;;4.67;2.20;;;12.10;85.40;;;;;;758930;188;26586;-87
2023/11/01 19:50:13;;;;;;;17.93;9.87;;;12.10;85.00;;;;;;750905;187;26564;-88
2023/11/01 19:55:39;;;;;;;3.90;2.83;;;12.00;85.10;;;;;;750581;189;27160;-89
2023/11/01 19:58:15;;;;;;;4.10;2.17;;;12.00;85.90;;;;;;750175;189;26539;-90
2023/11/01 20:00:47;;;;;;;3.60;2.40;;;12.00;86.20;;;;;;749762;189;26527;-90
2023/11/01 20:03:14;;;;;;;4.53;2.67;;;12.00;86.10;;;;;;749948;189;26579;-90
2023/11/01 20:05:40;;;;;;;4.00;2.17;;;12.00;85.60;;;;;;749718;188;26655;-89
2023/11/01 20:08:07;;;;;;;4.47;2.00;;;12.00;86.60;;;;;;750932;184;26625;-92
2023/11/01 20:10:33;;;;;;;4.57;2.40;;;11.90;87.60;;;;;;759612;187;26552;-91
2023/11/01 20:13:00;;;;;;;3.43;2.10;;;11.90;86.10;;;;;;750924;189;26607;-90
2023/11/01 20:15:26;;;;;;;4.83;2.47;;;11.80;87.40;;;;;;755185;187;26575;-93
2023/11/01 20:17:53;;;;;;;5.57;2.47;;;11.80;87.50;;;;;;755212;186;26588;-89